Time;durP1;ratioP1;P1;durP2;ratioP2;P2;SDS_P1;SDS_P2;PMS_P1;PMS_P2;Temp;Humidity;BMP_temperature;BMP_pressure;BME280_temperature;BME280_humidity;BME280_pressure;Samples;Min_cycle;Max_cycle;Signal;HPM_P1;HPM_P2
2022/08/05 00:01:13;;;;;;;;;;;29.80;40.10;;;;;;5019948;28;19933;-68
2022/08/05 00:03:39;;;;;;;;;;;29.80;40.30;;;;;;5032382;28;21276;-68
2022/08/05 00:06:06;;;;;;;;;;;29.80;40.40;;;;;;5037590;28;19932;-67
2022/08/05 00:08:32;;;;;;;;;;;29.80;40.50;;;;;;5020122;28;19925;-68
2022/08/05 00:11:00;;;;;;;;;;;29.70;40.50;;;;;;5034319;28;20407;-68
2022/08/05 00:13:26;;;;;;;;;;;29.70;40.50;;;;;;5042275;28;19924;-68
2022/08/05 00:15:54;;;;;;;;;;;29.70;40.60;;;;;;5019078;28;19937;-69
2022/08/05 00:18:21;;;;;;;;;;;29.60;40.60;;;;;;5022799;28;19933;-68
2022/08/05 00:20:47;;;;;;;;;;;29.60;40.70;;;;;;5019521;28;19932;-70
2022/08/05 00:23:14;;;;;;;;;;;29.60;40.70;;;;;;5039934;28;19929;-69
2022/08/05 00:25:40;;;;;;;;;;;29.50;40.90;;;;;;5038739;28;20388;-68
2022/08/05 00:28:07;;;;;;;;;;;29.50;41.10;;;;;;5024213;28;19932;-67
2022/08/05 00:30:33;;;;;;;;;;;29.50;41.20;;;;;;5017499;28;19932;-69
2022/08/05 00:33:01;;;;;;;;;;;29.50;41.40;;;;;;5020572;28;19940;-69
2022/08/05 00:35:28;;;;;;;;;;;29.40;41.50;;;;;;5037887;28;19935;-68
2022/08/05 00:37:55;;;;;;;;;;;29.40;41.70;;;;;;5022539;28;19925;-67
2022/08/05 00:40:23;;;;;;;;;;;29.40;41.70;;;;;;5027845;28;20416;-68
2022/08/05 00:42:49;;;;;;;;;;;29.40;41.70;;;;;;5022270;28;19984;-67
2022/08/05 00:45:16;;;;;;;;;;;29.30;41.80;;;;;;5018006;28;19932;-67
2022/08/05 00:47:42;;;;;;;;;;;29.30;41.80;;;;;;5030636;28;19935;-69
2022/08/05 00:50:10;;;;;;;;;;;29.30;42.00;;;;;;5023429;28;19929;-68
2022/08/05 00:52:37;;;;;;;;;;;29.30;42.30;;;;;;5024776;28;20345;-70
2022/08/05 00:55:04;;;;;;;;;;;29.30;42.50;;;;;;5035745;28;19933;-67
2022/08/05 00:57:31;;;;;;;;;;;29.30;42.90;;;;;;5033469;28;19929;-68
2022/08/05 00:59:57;;;;;;;;;;;29.20;42.80;;;;;;5021256;28;19925;-67
2022/08/05 01:02:24;;;;;;;;;;;29.20;42.90;;;;;;5021923;28;20572;-68
2022/08/05 01:04:50;;;;;;;;;;;29.20;43.10;;;;;;5034536;28;19925;-70
2022/08/05 01:07:18;;;;;;;;;;;29.20;43.20;;;;;;5027805;28;19925;-69
2022/08/05 01:09:44;;;;;;;;;;;29.20;43.60;;;;;;5032231;28;19929;-68
2022/08/05 01:12:12;;;;;;;;;;;29.10;43.60;;;;;;5032716;28;19925;-69
2022/08/05 01:14:41;;;;;;;;;;;29.10;43.70;;;;;;5031551;28;19936;-68
2022/08/05 01:17:10;;;;;;;;;;;29.10;44.00;;;;;;5019152;28;19929;-67
2022/08/05 01:19:41;;;;;;;;;;;29.10;44.20;;;;;;5022799;28;19925;-70
2022/08/05 01:22:25;;;;;;;;;;;29.10;44.30;;;;;;5040325;28;19936;-68
2022/08/05 01:25:02;;;;;;;;;;;29.00;44.60;;;;;;5033086;28;19926;-70
2022/08/05 01:27:38;;;;;;;;;;;29.00;44.70;;;;;;5032078;28;19951;-68
2022/08/05 01:30:05;;;;;;;;;;;29.00;44.80;;;;;;5019323;28;19935;-68
2022/08/05 01:32:33;;;;;;;;;;;29.00;45.60;;;;;;5030558;28;19936;-68
2022/08/05 01:35:01;;;;;;;;;;;28.90;45.20;;;;;;5035948;28;19954;-67
2022/08/05 01:37:32;;;;;;;;;;;28.90;45.50;;;;;;5014603;28;19929;-70
2022/08/05 01:39:59;;;;;;;;;;;28.90;45.50;;;;;;5023310;28;20328;-69
2022/08/05 01:42:27;;;;;;;;;;;28.90;45.40;;;;;;5030850;28;19925;-67
2022/08/05 01:44:56;;;;;;;;;;;28.90;45.50;;;;;;5017998;28;19926;-67
2022/08/05 01:47:23;;;;;;;;;;;28.80;45.50;;;;;;5023118;28;19933;-70
2022/08/05 01:49:51;;;;;;;;;;;28.90;45.60;;;;;;5023625;28;19925;-68
2022/08/05 01:52:18;;;;;;;;;;;28.80;45.80;;;;;;5020113;28;19925;-68
2022/08/05 01:54:47;;;;;;;;;;;28.80;45.90;;;;;;5029943;28;19929;-68
2022/08/05 01:57:16;;;;;;;;;;;28.80;45.90;;;;;;5037969;28;19944;-68
2022/08/05 01:59:46;;;;;;;;;;;28.70;45.90;;;;;;5017597;28;19925;-70
2022/08/05 02:02:15;;;;;;;;;;;28.70;46.20;;;;;;5017002;28;19929;-68
2022/08/05 02:04:42;;;;;;;;;;;28.70;46.30;;;;;;5035491;28;19928;-68
2022/08/05 02:07:09;;;;;;;;;;;28.70;46.30;;;;;;5026257;28;19933;-69
2022/08/05 02:09:35;;;;;;;;;;;28.70;46.40;;;;;;5029599;28;19924;-67
2022/08/05 02:12:04;;;;;;;;;;;28.60;46.50;;;;;;5031189;28;20401;-68
2022/08/05 02:14:33;;;;;;;;;;;28.70;46.70;;;;;;5032497;28;19932;-69
2022/08/05 02:17:03;;;;;;;;;;;28.60;46.60;;;;;;5017365;28;19932;-67
2022/08/05 02:19:34;;;;;;;;;;;28.60;46.70;;;;;;5015524;28;19933;-69
2022/08/05 02:22:03;;;;;;;;;;;28.60;46.70;;;;;;5023380;28;19932;-69
2022/08/05 02:24:32;;;;;;;;;;;28.60;46.80;;;;;;5026498;28;20396;-67
2022/08/05 02:27:00;;;;;;;;;;;28.60;47.00;;;;;;5036195;28;19932;-68
2022/08/05 02:29:28;;;;;;;;;;;28.60;47.30;;;;;;5021333;28;19933;-67
2022/08/05 02:31:57;;;;;;;;;;;28.50;47.40;;;;;;5019252;28;20301;-67
2022/08/05 02:34:25;;;;;;;;;;;28.60;47.70;;;;;;5033389;28;19983;-69
2022/08/05 02:36:54;;;;;;;;;;;28.50;47.70;;;;;;5032208;28;19954;-69
2022/08/05 02:39:22;;;;;;;;;;;28.50;47.80;;;;;;5018583;28;20336;-67
2022/08/05 02:41:49;;;;;;;;;;;28.50;48.40;;;;;;5029048;28;19928;-68
2022/08/05 02:44:16;;;;;;;;;;;28.40;47.90;;;;;;5022887;28;19924;-68
2022/08/05 02:46:45;;;;;;;;;;;28.40;48.00;;;;;;5020518;28;20296;-68
2022/08/05 02:49:13;;;;;;;;;;;28.40;48.00;;;;;;5028177;28;19920;-69
2022/08/05 02:51:39;;;;;;;;;;;28.40;48.00;;;;;;5022016;28;19936;-68
2022/08/05 02:54:08;;;;;;;;;;;28.40;48.00;;;;;;5018197;28;20297;-68
2022/08/05 02:56:35;;;;;;;;;;;28.40;48.00;;;;;;5025269;28;20292;-68
2022/08/05 02:59:03;;;;;;;;;;;28.40;48.00;;;;;;5016169;28;19929;-69
2022/08/05 03:01:30;;;;;;;;;;;28.30;48.00;;;;;;5019601;28;19931;-68
2022/08/05 03:03:59;;;;;;;;;;;28.30;48.20;;;;;;5021148;28;19937;-66
2022/08/05 03:06:26;;;;;;;;;;;28.30;48.30;;;;;;5031886;28;19937;-67
2022/08/05 03:08:53;;;;;;;;;;;28.30;48.30;;;;;;5021144;28;19925;-66
2022/08/05 03:11:22;;;;;;;;;;;28.30;48.30;;;;;;5039861;28;19931;-69
2022/08/05 03:13:49;;;;;;;;;;;28.20;48.30;;;;;;5031853;28;19925;-67
2022/08/05 03:16:15;;;;;;;;;;;28.30;48.40;;;;;;5016462;28;19926;-67
2022/08/05 03:18:42;;;;;;;;;;;28.20;48.40;;;;;;5018043;28;19924;-69
2022/08/05 03:21:09;;;;;;;;;;;28.20;48.40;;;;;;5043575;28;20003;-68
2022/08/05 03:23:35;;;;;;;;;;;28.20;48.50;;;;;;5021695;28;19933;-67
2022/08/05 03:26:02;;;;;;;;;;;28.20;48.60;;;;;;5039546;28;20535;-68
2022/08/05 03:28:31;;;;;;;;;;;28.10;48.60;;;;;;5020004;28;19932;-68
2022/08/05 03:30:59;;;;;;;;;;;28.10;48.60;;;;;;5022014;28;19925;-68
2022/08/05 03:33:26;;;;;;;;;;;28.10;48.70;;;;;;5033325;28;19925;-67
2022/08/05 03:35:54;;;;;;;;;;;28.10;48.80;;;;;;5034246;28;20377;-69
2022/08/05 03:38:21;;;;;;;;;;;28.10;48.90;;;;;;5034834;28;19991;-67
2022/08/05 03:40:48;;;;;;;;;;;28.10;49.00;;;;;;5026264;28;20407;-67
2022/08/05 03:43:15;;;;;;;;;;;28.10;49.20;;;;;;5023624;28;20395;-68
2022/08/05 03:45:43;;;;;;;;;;;28.00;49.60;;;;;;5015768;28;19929;-68
2022/08/05 03:48:10;;;;;;;;;;;28.00;49.90;;;;;;5031202;28;19933;-70
2022/08/05 03:50:41;;;;;;;;;;;28.00;50.00;;;;;;5042488;28;19937;-67
2022/08/05 03:53:10;;;;;;;;;;;28.00;50.40;;;;;;5022139;28;19929;-68
2022/08/05 03:55:39;;;;;;;;;;;28.00;50.50;;;;;;5035113;28;19929;-68
2022/08/05 03:58:09;;;;;;;;;;;27.90;50.70;;;;;;5033832;28;20415;-67
2022/08/05 04:00:37;;;;;;;;;;;27.90;50.90;;;;;;5024791;28;19929;-68
2022/08/05 04:03:06;;;;;;;;;;;27.90;51.00;;;;;;5037961;28;20444;-68
2022/08/05 04:05:33;;;;;;;;;;;27.90;51.20;;;;;;5038474;28;19980;-67
2022/08/05 04:08:00;;;;;;;;;;;27.90;51.30;;;;;;5026433;28;19929;-68
2022/08/05 04:10:27;;;;;;;;;;;27.90;51.50;;;;;;5035650;28;19925;-69
2022/08/05 04:12:54;;;;;;;;;;;27.80;51.60;;;;;;5042195;28;19928;-67
2022/08/05 04:15:20;;;;;;;;;;;27.80;51.80;;;;;;5026423;28;19933;-68
2022/08/05 04:17:47;;;;;;;;;;;27.80;51.90;;;;;;5023065;28;19925;-67
2022/08/05 04:20:19;;;;;;;;;;;27.80;52.20;;;;;;5016692;28;20382;-69
2022/08/05 04:22:46;;;;;;;;;;;27.70;52.30;;;;;;5039116;28;20376;-67
2022/08/05 04:25:13;;;;;;;;;;;27.70;52.50;;;;;;5037116;28;20459;-68
2022/08/05 04:27:39;;;;;;;;;;;27.70;52.80;;;;;;5032567;28;19929;-67
2022/08/05 04:30:06;;;;;;;;;;;27.70;53.00;;;;;;5019310;28;19933;-66
2022/08/05 04:32:33;;;;;;;;;;;27.70;53.10;;;;;;5035811;28;19929;-67
2022/08/05 04:34:59;;;;;;;;;;;27.60;52.90;;;;;;5035053;28;19929;-68
2022/08/05 04:37:27;;;;;;;;;;;27.60;53.10;;;;;;5022134;28;19936;-67
2022/08/05 04:39:54;;;;;;;;;;;27.60;53.20;;;;;;5022995;28;19925;-67
2022/08/05 04:42:20;;;;;;;;;;;27.50;53.10;;;;;;5034160;28;19937;-67
2022/08/05 04:44:47;;;;;;;;;;;27.50;53.10;;;;;;5014957;28;19926;-67
2022/08/05 04:47:13;;;;;;;;;;;27.50;53.30;;;;;;5021613;28;19933;-68
2022/08/05 04:49:40;;;;;;;;;;;27.50;53.30;;;;;;5025218;28;19929;-67
2022/08/05 04:52:06;;;;;;;;;;;27.50;53.40;;;;;;5029588;28;19932;-67
2022/08/05 04:54:34;;;;;;;;;;;27.50;53.50;;;;;;5033103;28;19924;-67
2022/08/05 04:57:01;;;;;;;;;;;27.40;53.60;;;;;;5036830;28;19929;-68
2022/08/05 04:59:27;;;;;;;;;;;27.40;54.00;;;;;;5021512;28;19937;-67
2022/08/05 05:01:54;;;;;;;;;;;27.40;54.20;;;;;;5018773;28;19937;-67
2022/08/05 05:04:20;;;;;;;;;;;27.40;54.20;;;;;;5038636;28;19925;-69
2022/08/05 05:06:47;;;;;;;;;;;27.30;54.30;;;;;;5030534;28;19932;-67
2022/08/05 05:09:13;;;;;;;;;;;27.30;54.30;;;;;;5030977;28;19924;-68
2022/08/05 05:11:41;;;;;;;;;;;27.30;54.40;;;;;;5036174;28;19936;-68
2022/08/05 05:14:08;;;;;;;;;;;27.30;55.00;;;;;;5038406;28;19929;-67
2022/08/05 05:16:34;;;;;;;;;;;27.30;54.50;;;;;;5014828;28;19929;-67
2022/08/05 05:19:01;;;;;;;;;;;27.20;54.50;;;;;;5018791;28;20270;-67
2022/08/05 05:21:27;;;;;;;;;;;27.20;54.50;;;;;;5034336;28;19932;-70
2022/08/05 05:23:54;;;;;;;;;;;27.20;55.10;;;;;;5036182;28;19925;-68
2022/08/05 05:26:21;;;;;;;;;;;27.20;54.40;;;;;;5038058;28;19929;-68
2022/08/05 05:28:49;;;;;;;;;;;27.20;54.40;;;;;;5017564;28;19974;-70
2022/08/05 05:31:15;;;;;;;;;;;27.20;54.30;;;;;;5021136;28;19926;-68
2022/08/05 05:33:42;;;;;;;;;;;27.10;54.30;;;;;;5028752;28;19928;-69
2022/08/05 05:36:09;;;;;;;;;;;27.10;54.30;;;;;;5035519;28;20309;-69
2022/08/05 05:38:35;;;;;;;;;;;27.10;54.30;;;;;;5033663;28;19929;-67
2022/08/05 05:41:02;;;;;;;;;;;27.10;54.30;;;;;;5029365;28;19933;-68
2022/08/05 05:43:28;;;;;;;;;;;27.10;54.30;;;;;;5021226;28;19929;-67
2022/08/05 05:45:56;;;;;;;;;;;27.10;54.30;;;;;;5019594;28;20332;-69
2022/08/05 05:48:23;;;;;;;;;;;27.00;54.20;;;;;;5023673;28;20423;-68
2022/08/05 05:50:50;;;;;;;;;;;27.00;54.20;;;;;;5021544;28;19941;-69
2022/08/05 05:53:17;;;;;;;;;;;27.00;54.30;;;;;;5020439;28;19925;-68
2022/08/05 05:55:43;;;;;;;;;;;27.10;54.40;;;;;;5030440;28;19979;-70
2022/08/05 05:58:10;;;;;;;;;;;27.00;54.20;;;;;;5031001;28;19929;-68
2022/08/05 06:00:36;;;;;;;;;;;27.00;54.20;;;;;;5017278;28;20304;-68
2022/08/05 06:03:04;;;;;;;;;;;27.00;54.20;;;;;;5032313;28;20392;-68
2022/08/05 06:05:31;;;;;;;;;;;27.00;54.20;;;;;;5030061;28;19936;-68
2022/08/05 06:07:57;;;;;;;;;;;27.00;54.20;;;;;;5018645;28;19932;-68
2022/08/05 06:10:24;;;;;;;;;;;27.00;54.20;;;;;;5023446;28;19932;-67
2022/08/05 06:12:50;;;;;;;;;;;27.00;54.20;;;;;;5041277;28;19936;-68
2022/08/05 06:15:17;;;;;;;;;;;27.00;54.30;;;;;;5016712;28;19933;-68
2022/08/05 06:17:43;;;;;;;;;;;27.00;54.20;;;;;;5016668;28;19925;-68
2022/08/05 06:20:12;;;;;;;;;;;26.90;54.20;;;;;;5020373;28;19936;-68
2022/08/05 06:22:38;;;;;;;;;;;27.00;54.40;;;;;;5033411;28;19925;-68
2022/08/05 06:25:06;;;;;;;;;;;27.00;54.40;;;;;;5028006;28;19929;-67
2022/08/05 06:27:33;;;;;;;;;;;26.90;54.40;;;;;;5028001;28;19964;-67
2022/08/05 06:29:59;;;;;;;;;;;26.90;54.50;;;;;;5021988;28;19940;-69
2022/08/05 06:32:26;;;;;;;;;;;26.90;54.50;;;;;;5026629;28;19929;-67
2022/08/05 06:34:53;;;;;;;;;;;26.90;54.50;;;;;;5014849;28;19932;-67
2022/08/05 06:37:21;;;;;;;;;;;26.90;54.50;;;;;;5033149;28;19940;-69
2022/08/05 06:39:48;;;;;;;;;;;26.80;54.60;;;;;;5017654;28;19926;-67
2022/08/05 06:42:15;;;;;;;;;;;26.80;54.70;;;;;;5028863;28;19933;-70
2022/08/05 06:44:41;;;;;;;;;;;26.80;54.70;;;;;;5016368;28;19932;-69
2022/08/05 06:47:09;;;;;;;;;;;26.80;54.70;;;;;;5017989;28;19936;-68
2022/08/05 06:49:35;;;;;;;;;;;26.80;54.80;;;;;;5020684;28;19926;-68
2022/08/05 06:52:02;;;;;;;;;;;26.80;54.70;;;;;;5037258;28;19932;-68
2022/08/05 06:54:30;;;;;;;;;;;26.90;54.70;;;;;;5020844;28;19926;-69
2022/08/05 06:56:56;;;;;;;;;;;26.80;54.60;;;;;;5031366;28;19932;-67
2022/08/05 06:59:23;;;;;;;;;;;26.80;54.60;;;;;;5020094;28;19929;-67
2022/08/05 07:01:50;;;;;;;;;;;26.80;54.60;;;;;;5019650;28;19924;-69
2022/08/05 07:04:16;;;;;;;;;;;26.80;54.70;;;;;;5019247;28;20392;-68
2022/08/05 07:06:43;;;;;;;;;;;26.90;54.60;;;;;;5027583;28;19928;-68
2022/08/05 07:09:09;;;;;;;;;;;26.80;54.40;;;;;;5024946;28;19933;-67
2022/08/05 07:11:37;;;;;;;;;;;26.80;54.30;;;;;;5038251;28;19928;-68
2022/08/05 07:16:50;;;;;;;;;;;26.80;54.30;;;;;;5021917;28;20412;-69
2022/08/05 07:19:17;;;;;;;;;;;26.80;54.10;;;;;;5023499;28;19925;-68
2022/08/05 07:21:44;;;;;;;;;;;26.90;54.20;;;;;;5039370;28;19925;-68
2022/08/05 07:24:11;;;;;;;;;;;26.90;54.10;;;;;;5043143;28;20656;-69
2022/08/05 07:26:39;;;;;;;;;;;26.90;54.10;;;;;;5041301;28;19929;-71
2022/08/05 07:29:05;;;;;;;;;;;26.90;54.10;;;;;;5017147;28;19926;-68
2022/08/05 07:31:32;;;;;;;;;;;26.90;53.90;;;;;;5029940;28;19936;-68
2022/08/05 07:33:59;;;;;;;;;;;26.90;53.80;;;;;;5035214;28;19921;-68
2022/08/05 07:36:26;;;;;;;;;;;26.90;53.80;;;;;;5038546;28;19928;-68
2022/08/05 07:38:52;;;;;;;;;;;27.00;53.80;;;;;;5022642;28;19925;-68
2022/08/05 07:41:21;;;;;;;;;;;27.00;53.60;;;;;;5030315;28;19924;-67
2022/08/05 07:43:49;;;;;;;;;;;27.00;53.50;;;;;;5023173;28;19929;-68
2022/08/05 07:46:16;;;;;;;;;;;27.00;53.30;;;;;;5022618;28;19928;-68
2022/08/05 07:48:42;;;;;;;;;;;27.10;53.20;;;;;;5023903;28;19933;-68
2022/08/05 07:51:09;;;;;;;;;;;27.10;53.00;;;;;;5031642;28;19932;-68
2022/08/05 07:53:36;;;;;;;;;;;27.10;52.90;;;;;;5028645;28;19925;-68
2022/08/05 07:56:03;;;;;;;;;;;27.10;52.90;;;;;;5022688;28;19965;-68
2022/08/05 07:58:29;;;;;;;;;;;27.10;52.90;;;;;;5034920;28;20568;-69
2022/08/05 08:00:57;;;;;;;;;;;27.20;52.70;;;;;;5031689;28;19933;-67
2022/08/05 08:03:24;;;;;;;;;;;27.20;52.40;;;;;;5030535;28;19933;-67
2022/08/05 08:05:51;;;;;;;;;;;27.20;52.10;;;;;;5026642;28;20012;-66
2022/08/05 08:08:18;;;;;;;;;;;27.20;52.00;;;;;;5035874;28;20002;-70
2022/08/05 08:10:45;;;;;;;;;;;27.20;51.80;;;;;;5034175;28;19929;-68
2022/08/05 08:13:11;;;;;;;;;;;27.30;51.60;;;;;;5044894;28;19951;-69
2022/08/05 08:15:38;;;;;;;;;;;27.30;51.30;;;;;;5023952;28;20409;-70
2022/08/05 08:18:06;;;;;;;;;;;27.30;51.30;;;;;;5020871;28;19933;-68
2022/08/05 08:20:33;;;;;;;;;;;27.30;51.00;;;;;;5017102;28;19933;-68
2022/08/05 08:23:01;;;;;;;;;;;27.40;51.00;;;;;;5036695;28;19932;-71
2022/08/05 08:25:28;;;;;;;;;;;27.40;50.80;;;;;;5030596;28;20020;-68
2022/08/05 08:27:55;;;;;;;;;;;27.40;50.60;;;;;;5037851;28;20308;-67
2022/08/05 08:30:22;;;;;;;;;;;27.40;50.40;;;;;;5023141;28;19938;-68
2022/08/05 08:32:48;;;;;;;;;;;27.50;50.50;;;;;;5022029;28;19948;-67
2022/08/05 08:35:16;;;;;;;;;;;27.50;50.40;;;;;;5023434;28;19924;-68
2022/08/05 08:37:42;;;;;;;;;;;27.50;50.20;;;;;;5028628;28;19929;-68
2022/08/05 08:40:10;;;;;;;;;;;27.50;49.90;;;;;;5026228;28;19925;-68
2022/08/05 08:42:36;;;;;;;;;;;27.60;49.80;;;;;;5027940;28;19933;-67
2022/08/05 08:45:04;;;;;;;;;;;27.60;49.60;;;;;;5021981;28;19929;-69
2022/08/05 08:47:31;;;;;;;;;;;27.60;49.40;;;;;;5024432;28;19934;-68
2022/08/05 08:49:58;;;;;;;;;;;27.60;49.20;;;;;;5025171;28;19926;-67
2022/08/05 08:52:29;;;;;;;;;;;27.70;49.20;;;;;;5022788;28;20377;-69
2022/08/05 08:54:55;;;;;;;;;;;27.70;49.30;;;;;;5032750;28;19932;-68
2022/08/05 08:57:22;;;;;;;;;;;27.70;50.10;;;;;;5030903;28;19924;-68
2022/08/05 08:59:49;;;;;;;;;;;27.80;51.30;;;;;;5026777;28;20445;-70
2022/08/05 09:02:18;;;;;;;;;;;27.80;52.10;;;;;;5015903;28;19931;-68
2022/08/05 09:04:45;;;;;;;;;;;27.90;52.10;;;;;;5029427;28;20027;-69
2022/08/05 09:07:12;;;;;;;;;;;27.90;51.60;;;;;;5031029;28;19930;-69
2022/08/05 09:09:39;;;;;;;;;;;27.90;50.30;;;;;;5025734;28;19972;-67
2022/08/05 09:12:08;;;;;;;;;;;28.00;49.80;;;;;;5027493;28;19929;-68
2022/08/05 09:14:34;;;;;;;;;;;28.00;48.90;;;;;;5021136;28;19929;-67
2022/08/05 09:17:02;;;;;;;;;;;28.00;48.90;;;;;;5014350;28;20828;-69
2022/08/05 09:19:28;;;;;;;;;;;28.10;49.20;;;;;;5016971;28;19932;-68
2022/08/05 09:21:55;;;;;;;;;;;28.10;49.60;;;;;;5026311;28;19925;-68
2022/08/05 09:24:21;;;;;;;;;;;28.20;49.90;;;;;;5039483;28;19928;-68
2022/08/05 09:26:51;;;;;;;;;;;28.20;49.80;;;;;;5032741;28;20367;-68
2022/08/05 09:29:18;;;;;;;;;;;28.20;50.20;;;;;;5031847;28;20301;-67
2022/08/05 09:32:00;;;;;;;;;;;28.30;50.00;;;;;;5020013;28;19930;-69
2022/08/05 09:34:45;;;;;;;;;;;28.30;49.00;;;;;;5017965;28;20435;-69
2022/08/05 09:37:16;;;;;;;;;;;28.30;48.20;;;;;;5042774;28;19925;-69
2022/08/05 09:39:43;;;;;;;;;;;28.40;48.50;;;;;;5019227;28;20412;-70
2022/08/05 09:42:11;;;;;;;;;;;28.50;48.20;;;;;;5030505;28;19929;-70
2022/08/05 09:44:38;;;;;;;;;;;28.50;48.00;;;;;;5020270;28;19936;-68
2022/08/05 09:47:07;;;;;;;;;;;28.50;47.60;;;;;;5017534;28;20415;-69
2022/08/05 09:49:33;;;;;;;;;;;28.60;48.10;;;;;;5031213;28;19929;-68
2022/08/05 09:52:16;;;;;;;;;;;28.70;47.20;;;;;;5021277;28;19929;-70
2022/08/05 09:54:51;;;;;;;;;;;28.70;48.20;;;;;;5029733;28;20695;-69
2022/08/05 09:57:29;;;;;;;;;;;28.80;48.00;;;;;;5035703;28;19929;-68
2022/08/05 09:59:57;;;;;;;;;;;28.80;47.50;;;;;;5036278;28;19931;-71
2022/08/05 10:02:30;;;;;;;;;;;28.90;47.50;;;;;;5039544;28;20594;-67
2022/08/05 10:05:02;;;;;;;;;;;28.90;47.40;;;;;;5019004;28;19925;-70
2022/08/05 10:07:42;;;;;;;;;;;29.00;46.70;;;;;;5039913;28;19925;-69
2022/08/05 10:10:08;;;;;;;;;;;29.00;47.10;;;;;;5039276;28;19935;-68
2022/08/05 10:12:40;;;;;;;;;;;29.10;46.90;;;;;;5039709;28;19929;-70
2022/08/05 10:15:14;;;;;;;;;;;29.20;47.40;;;;;;5023503;28;19925;-73
2022/08/05 10:17:41;;;;;;;;;;;29.20;46.70;;;;;;5016507;28;19977;-70
2022/08/05 10:20:10;;;;;;;;;;;29.30;46.40;;;;;;5017109;28;19956;-70
2022/08/05 10:22:38;;;;;;;;;;;29.30;46.50;;;;;;5039303;28;19956;-71
2022/08/05 10:25:06;;;;;;;;;;;29.40;45.90;;;;;;5035030;28;20274;-71
2022/08/05 10:27:32;;;;;;;;;;;29.40;46.00;;;;;;5038367;28;19939;-70
2022/08/05 10:30:00;;;;;;;;;;;29.40;45.60;;;;;;5036518;28;19929;-70
2022/08/05 10:32:27;;;;;;;;;;;29.50;45.90;;;;;;5019046;28;19925;-70
2022/08/05 10:34:54;;;;;;;;;;;29.50;45.70;;;;;;5018654;28;19925;-70
2022/08/05 10:37:21;;;;;;;;;;;29.60;44.90;;;;;;5030667;28;20036;-71
2022/08/05 10:39:50;;;;;;;;;;;29.70;44.80;;;;;;5019366;28;20309;-71
2022/08/05 10:42:20;;;;;;;;;;;29.70;45.70;;;;;;5034697;28;19925;-70
2022/08/05 10:44:47;;;;;;;;;;;29.70;45.00;;;;;;5016135;28;19930;-70
2022/08/05 10:47:16;;;;;;;;;;;29.80;45.80;;;;;;5020497;28;19929;-71
2022/08/05 10:49:57;;;;;;;;;;;29.90;45.40;;;;;;5026655;28;19944;-70
2022/08/05 10:52:37;;;;;;;;;;;29.90;44.60;;;;;;5034009;28;19921;-70
2022/08/05 10:55:05;;;;;;;;;;;30.00;43.90;;;;;;5032689;28;19929;-71
2022/08/05 10:57:32;;;;;;;;;;;30.00;44.50;;;;;;5035299;28;19929;-72
2022/08/05 11:00:09;;;;;;;;;;;30.10;44.20;;;;;;5035514;28;20320;-70
2022/08/05 11:02:37;;;;;;;;;;;30.20;45.10;;;;;;5033361;28;19925;-70
2022/08/05 11:05:04;;;;;;;;;;;30.20;44.50;;;;;;5020299;28;19956;-69
2022/08/05 11:07:31;;;;;;;;;;;30.20;44.20;;;;;;5015848;28;19933;-70
2022/08/05 11:10:00;;;;;;;;;;;30.30;44.60;;;;;;5029012;28;19932;-70
2022/08/05 11:12:44;;;;;;;;;;;30.30;44.70;;;;;;5033165;28;20384;-70
2022/08/05 11:15:16;;;;;;;;;;;30.40;44.80;;;;;;5022265;28;20267;-70
2022/08/05 11:17:45;;;;;;;;;;;30.40;44.20;;;;;;5018972;28;19952;-72
2022/08/05 11:20:26;;;;;;;;;;;30.50;44.60;;;;;;5032292;28;19932;-72
2022/08/05 11:22:53;;;;;;;;;;;30.50;44.70;;;;;;5029855;28;19929;-71
2022/08/05 11:25:33;;;;;;;;;;;30.50;43.90;;;;;;5024138;28;19940;-69
2022/08/05 11:28:18;;;;;;;;;;;30.60;43.30;;;;;;5024966;28;19929;-70
2022/08/05 11:31:05;;;;;;;;;;;30.70;42.90;;;;;;5015025;28;19932;-72
2022/08/05 11:33:35;;;;;;;;;;;30.70;43.20;;;;;;4996831;28;19936;-72
2022/08/05 11:36:02;;;;;;;;;;;30.70;43.90;;;;;;5025004;28;20648;-70
2022/08/05 11:38:53;;;;;;;;;;;30.80;43.30;;;;;;5020625;28;19929;-71
2022/08/05 11:41:21;;;;;;;;;;;30.80;43.50;;;;;;5027066;28;20384;-69
2022/08/05 11:43:53;;;;;;;;;;;30.90;43.90;;;;;;5023421;28;19925;-69
2022/08/05 11:46:24;;;;;;;;;;;30.90;43.10;;;;;;5013985;28;20012;-70
2022/08/05 11:48:53;;;;;;;;;;;31.00;43.00;;;;;;5025564;28;19932;-71
2022/08/05 11:51:19;;;;;;;;;;;31.00;43.40;;;;;;5033528;28;19925;-70
2022/08/05 11:53:46;;;;;;;;;;;31.10;42.30;;;;;;5023764;28;19929;-71
2022/08/05 11:56:13;;;;;;;;;;;31.10;42.20;;;;;;5035628;28;19929;-71
2022/08/05 11:58:40;;;;;;;;;;;31.20;42.70;;;;;;5025733;28;20042;-70
2022/08/05 12:01:07;;;;;;;;;;;31.20;43.30;;;;;;5035047;28;19926;-70
2022/08/05 12:03:41;;;;;;;;;;;31.30;43.30;;;;;;5025914;28;19936;-71
2022/08/05 12:06:09;;;;;;;;;;;31.30;43.10;;;;;;5015954;28;20437;-70
2022/08/05 12:08:40;;;;;;;;;;;31.40;42.70;;;;;;5025047;28;19925;-70
2022/08/05 12:11:07;;;;;;;;;;;31.40;42.50;;;;;;5035262;28;20450;-72
2022/08/05 12:13:34;;;;;;;;;;;31.50;42.30;;;;;;5040792;28;20783;-71
2022/08/05 12:16:01;;;;;;;;;;;31.50;42.20;;;;;;5026173;28;19936;-70
2022/08/05 12:18:29;;;;;;;;;;;31.50;42.60;;;;;;5018095;28;19945;-70
2022/08/05 12:20:56;;;;;;;;;;;31.60;42.60;;;;;;5019693;28;20016;-72
2022/08/05 12:23:24;;;;;;;;;;;31.60;42.10;;;;;;5040117;28;19943;-72
2022/08/05 12:25:54;;;;;;;;;;;31.70;42.30;;;;;;5042675;28;19924;-71
2022/08/05 12:28:30;;;;;;;;;;;31.70;42.20;;;;;;5031511;28;20290;-70
2022/08/05 12:30:57;;;;;;;;;;;31.80;42.10;;;;;;5025536;28;19929;-71
2022/08/05 12:33:23;;;;;;;;;;;31.80;42.20;;;;;;5019358;28;19987;-69
2022/08/05 12:35:50;;;;;;;;;;;31.90;42.40;;;;;;5031127;28;20369;-71
2022/08/05 12:38:17;;;;;;;;;;;31.90;42.20;;;;;;5023059;28;20042;-71
2022/08/05 12:40:45;;;;;;;;;;;31.90;42.20;;;;;;5038183;28;19994;-71
2022/08/05 12:43:11;;;;;;;;;;;32.00;41.50;;;;;;5027257;28;20322;-71
2022/08/05 12:45:38;;;;;;;;;;;32.00;41.70;;;;;;5017622;28;19930;-70
2022/08/05 12:48:13;;;;;;;;;;;32.10;41.80;;;;;;5023894;28;20015;-71
2022/08/05 12:50:40;;;;;;;;;;;32.10;41.00;;;;;;5042910;28;19978;-70
2022/08/05 12:53:06;;;;;;;;;;;32.20;41.70;;;;;;5018782;28;20005;-71
2022/08/05 12:55:34;;;;;;;;;;;32.20;41.90;;;;;;5036180;28;20307;-72
2022/08/05 12:58:02;;;;;;;;;;;32.30;41.80;;;;;;5030080;28;20385;-71
2022/08/05 13:00:30;;;;;;;;;;;32.30;41.70;;;;;;5041074;28;19928;-70
2022/08/05 13:02:56;;;;;;;;;;;32.30;41.80;;;;;;5037657;28;19944;-70
2022/08/05 13:05:23;;;;;;;;;;;32.40;41.80;;;;;;5025059;28;19924;-70
2022/08/05 13:07:50;;;;;;;;;;;32.40;41.50;;;;;;5043026;28;19931;-71
2022/08/05 13:10:17;;;;;;;;;;;32.40;41.80;;;;;;5036522;28;19940;-71
2022/08/05 13:12:44;;;;;;;;;;;32.40;41.90;;;;;;5037615;28;19936;-69
2022/08/05 13:15:14;;;;;;;;;;;32.40;41.30;;;;;;5025085;28;19948;-71
2022/08/05 13:17:40;;;;;;;;;;;32.40;41.50;;;;;;5017207;28;19925;-73
2022/08/05 13:20:08;;;;;;;;;;;32.40;41.60;;;;;;5025871;28;19941;-70
2022/08/05 13:22:35;;;;;;;;;;;32.40;42.10;;;;;;5039632;28;19991;-70
2022/08/05 13:25:04;;;;;;;;;;;32.40;42.90;;;;;;5033793;28;19940;-70
2022/08/05 13:27:31;;;;;;;;;;;32.40;42.10;;;;;;5039390;28;19932;-70
2022/08/05 13:29:58;;;;;;;;;;;32.50;42.40;;;;;;5037057;28;19925;-70
2022/08/05 13:32:26;;;;;;;;;;;32.50;42.60;;;;;;5020053;28;19933;-71
2022/08/05 13:34:53;;;;;;;;;;;32.50;42.50;;;;;;5020032;28;20321;-70
2022/08/05 13:37:20;;;;;;;;;;;32.50;42.50;;;;;;5045940;28;19925;-73
2022/08/05 13:39:46;;;;;;;;;;;32.50;42.70;;;;;;5020851;28;19975;-71
2022/08/05 13:42:13;;;;;;;;;;;32.50;42.50;;;;;;5033339;28;19936;-70
2022/08/05 13:44:39;;;;;;;;;;;32.50;42.70;;;;;;5020120;28;19925;-70
2022/08/05 13:47:06;;;;;;;;;;;32.60;43.00;;;;;;5028982;28;19932;-70
2022/08/05 13:49:34;;;;;;;;;;;32.60;43.20;;;;;;5027575;28;19936;-70
2022/08/05 13:52:09;;;;;;;;;;;32.60;42.70;;;;;;5020135;28;19934;-71
2022/08/05 13:54:36;;;;;;;;;;;32.60;42.80;;;;;;5024749;28;19932;-70
2022/08/05 13:57:02;;;;;;;;;;;32.60;43.00;;;;;;5038300;28;19925;-71
2022/08/05 13:59:29;;;;;;;;;;;32.60;43.00;;;;;;5031906;28;19925;-72
2022/08/05 14:01:56;;;;;;;;;;;32.60;43.10;;;;;;5043570;28;20304;-71
2022/08/05 14:07:10;;;;;;;;;;;32.60;43.40;;;;;;5019375;28;20289;-71
2022/08/05 14:09:38;;;;;;;;;;;32.60;43.20;;;;;;5024708;28;19979;-71
2022/08/05 14:12:04;;;;;;;;;;;32.60;43.40;;;;;;5033843;28;20044;-72
2022/08/05 14:14:31;;;;;;;;;;;32.60;43.20;;;;;;5033396;28;19928;-71
2022/08/05 14:16:57;;;;;;;;;;;32.60;43.50;;;;;;5018526;28;19983;-70
2022/08/05 14:19:24;;;;;;;;;;;32.60;43.20;;;;;;5016656;28;19929;-72
2022/08/05 14:21:51;;;;;;;;;;;32.60;43.20;;;;;;5023766;28;19925;-69
2022/08/05 14:24:18;;;;;;;;;;;32.70;43.10;;;;;;5032102;28;19986;-71
2022/08/05 14:26:45;;;;;;;;;;;32.70;43.60;;;;;;5036495;28;19995;-71